sensor_id;sensor_type;location;lat;lon;timestamp;temperature;humidity
49901;DHT22;35789;48.414;12.768;2023-03-01T00:00:00;0.9;99.9
49901;DHT22;35789;48.414;12.768;2023-03-01T00:05:00;0.9;99.9
49901;DHT22;35789;48.414;12.768;2023-03-01T00:10:00;0.8;99.9
49901;DHT22;35789;48.414;12.768;2023-03-01T00:15:00;0.7;99.9
49901;DHT22;35789;48.414;12.768;2023-03-01T00:20:00;0.6;99.9
49901;DHT22;35789;48.414;12.768;2023-03-01T00:25:00;0.6;99.9
49901;DHT22;35789;48.414;12.768;2023-03-01T00:30:00;0.5;99.9
49901;DHT22;35789;48.414;12.768;2023-03-01T00:35:00;0.4;99.9
49901;DHT22;35789;48.414;12.768;2023-03-01T00:40:00;0.3;99.9
49901;DHT22;35789;48.414;12.768;2023-03-01T00:45:00;0.2;99.9
49901;DHT22;35789;48.414;12.768;2023-03-01T00:50:00;0.2;99.9
49901;DHT22;35789;48.414;12.768;2023-03-01T00:55:00;0.2;99.9
49901;DHT22;35789;48.414;12.768;2023-03-01T01:00:00;0.1;99.9
49901;DHT22;35789;48.414;12.768;2023-03-01T01:05:00;0.1;99.9
49901;DHT22;35789;48.414;12.768;2023-03-01T01:10:00;0.1;99.9
49901;DHT22;35789;48.414;12.768;2023-03-01T01:15:00;0.0;99.9
49901;DHT22;35789;48.414;12.768;2023-03-01T01:20:00;0.1;99.9
49901;DHT22;35789;48.414;12.768;2023-03-01T01:25:00;0.0;99.9
49901;DHT22;35789;48.414;12.768;2023-03-01T01:30:00;-0.2;99.9
49901;DHT22;35789;48.414;12.768;2023-03-01T01:35:00;-0.2;99.9
49901;DHT22;35789;48.414;12.768;2023-03-01T01:40:01;-0.3;99.9
49901;DHT22;35789;48.414;12.768;2023-03-01T01:50:00;-0.3;99.9
49901;DHT22;35789;48.414;12.768;2023-03-01T01:55:02;-0.3;99.9
49901;DHT22;35789;48.414;12.768;2023-03-01T02:00:03;-0.4;99.9
49901;DHT22;35789;48.414;12.768;2023-03-01T02:05:01;-0.4;99.9
49901;DHT22;35789;48.414;12.768;2023-03-01T02:10:00;-0.4;99.9
49901;DHT22;35789;48.414;12.768;2023-03-01T02:15:00;-0.4;99.9
49901;DHT22;35789;48.414;12.768;2023-03-01T02:20:03;-0.5;99.9
49901;DHT22;35789;48.414;12.768;2023-03-01T02:25:03;-0.5;99.9
49901;DHT22;35789;48.414;12.768;2023-03-01T02:30:00;-0.5;99.9
49901;DHT22;35789;48.414;12.768;2023-03-01T02:35:00;-0.6;99.9
49901;DHT22;35789;48.414;12.768;2023-03-01T02:40:02;-0.6;99.9
49901;DHT22;35789;48.414;12.768;2023-03-01T02:45:00;-0.7;99.9
49901;DHT22;35789;48.414;12.768;2023-03-01T02:50:00;unavailable;unavailable
49901;DHT22;35789;48.414;12.768;2023-03-01T02:55:01;-0.7;99.9
49901;DHT22;35789;48.414;12.768;2023-03-01T03:00:03;-0.7;99.9
49901;DHT22;35789;48.414;12.768;2023-03-01T03:05:00;-0.7;99.9
49901;DHT22;35789;48.414;12.768;2023-03-01T03:10:00;-0.7;99.9
49901;DHT22;35789;48.414;12.768;2023-03-01T03:15:00;-0.7;99.9
49901;DHT22;35789;48.414;12.768;2023-03-01T03:20:00;-0.7;99.9
49901;DHT22;35789;48.414;12.768;2023-03-01T03:25:00;-0.8;99.9
49901;DHT22;35789;48.414;12.768;2023-03-01T03:30:00;-0.8;99.9
49901;DHT22;35789;48.414;12.768;2023-03-01T03:35:00;-0.8;99.9
49901;DHT22;35789;48.414;12.768;2023-03-01T03:40:00;-0.9;99.9
49901;DHT22;35789;48.414;12.768;2023-03-01T03:45:00;-0.9;99.9
49901;DHT22;35789;48.414;12.768;2023-03-01T03:50:00;-0.9;99.9
49901;DHT22;35789;48.414;12.768;2023-03-01T03:55:00;-0.9;99.9
49901;DHT22;35789;48.414;12.768;2023-03-01T04:00:00;-0.9;99.9
49901;DHT22;35789;48.414;12.768;2023-03-01T04:05:00;-1.0;99.9
49901;DHT22;35789;48.414;12.768;2023-03-01T04:10:00;-0.9;99.9
49901;DHT22;35789;48.414;12.768;2023-03-01T04:15:00;-1.0;99.9
49901;DHT22;35789;48.414;12.768;2023-03-01T04:20:00;-1.0;99.9
49901;DHT22;35789;48.414;12.768;2023-03-01T04:25:00;-1.1;99.9
49901;DHT22;35789;48.414;12.768;2023-03-01T04:30:00;-1.0;99.9
49901;DHT22;35789;48.414;12.768;2023-03-01T04:35:00;-1.1;99.9
49901;DHT22;35789;48.414;12.768;2023-03-01T04:40:00;-1.1;99.9
49901;DHT22;35789;48.414;12.768;2023-03-01T04:45:00;-1.1;99.9
49901;DHT22;35789;48.414;12.768;2023-03-01T04:50:00;-1.2;99.9
49901;DHT22;35789;48.414;12.768;2023-03-01T04:55:00;-1.2;99.9
49901;DHT22;35789;48.414;12.768;2023-03-01T05:00:00;-1.2;99.9
49901;DHT22;35789;48.414;12.768;2023-03-01T05:05:00;-1.2;99.9
49901;DHT22;35789;48.414;12.768;2023-03-01T05:10:00;-1.2;99.9
49901;DHT22;35789;48.414;12.768;2023-03-01T05:15:00;-1.3;99.9
49901;DHT22;35789;48.414;12.768;2023-03-01T05:20:00;-1.2;99.9
49901;DHT22;35789;48.414;12.768;2023-03-01T05:25:00;-1.3;99.9
49901;DHT22;35789;48.414;12.768;2023-03-01T05:30:00;-1.3;99.9
49901;DHT22;35789;48.414;12.768;2023-03-01T05:35:00;-1.4;99.9
49901;DHT22;35789;48.414;12.768;2023-03-01T05:40:00;-1.4;99.9
49901;DHT22;35789;48.414;12.768;2023-03-01T05:45:00;-1.4;99.9
49901;DHT22;35789;48.414;12.768;2023-03-01T05:50:00;-1.4;99.9
49901;DHT22;35789;48.414;12.768;2023-03-01T05:55:00;-1.4;99.9
49901;DHT22;35789;48.414;12.768;2023-03-01T06:00:00;-1.4;99.9
49901;DHT22;35789;48.414;12.768;2023-03-01T06:05:00;-1.4;99.9
49901;DHT22;35789;48.414;12.768;2023-03-01T06:10:00;-1.4;99.9
49901;DHT22;35789;48.414;12.768;2023-03-01T06:15:00;-1.4;99.9
49901;DHT22;35789;48.414;12.768;2023-03-01T06:20:00;-1.4;99.9
49901;DHT22;35789;48.414;12.768;2023-03-01T06:25:00;-1.4;99.9
49901;DHT22;35789;48.414;12.768;2023-03-01T06:30:00;-1.4;99.9
49901;DHT22;35789;48.414;12.768;2023-03-01T06:35:00;-1.4;99.9
49901;DHT22;35789;48.414;12.768;2023-03-01T06:40:00;-1.4;99.9
49901;DHT22;35789;48.414;12.768;2023-03-01T06:45:03;-1.3;99.9
49901;DHT22;35789;48.414;12.768;2023-03-01T06:50:00;-1.2;99.9
49901;DHT22;35789;48.414;12.768;2023-03-01T06:55:00;-1.2;99.9
49901;DHT22;35789;48.414;12.768;2023-03-01T07:00:00;-1.3;99.9
49901;DHT22;35789;48.414;12.768;2023-03-01T07:05:00;-1.2;99.9
49901;DHT22;35789;48.414;12.768;2023-03-01T07:10:00;-1.2;99.9
49901;DHT22;35789;48.414;12.768;2023-03-01T07:15:00;-1.2;99.9
49901;DHT22;35789;48.414;12.768;2023-03-01T07:20:00;-1.1;99.9
49901;DHT22;35789;48.414;12.768;2023-03-01T07:25:00;-1.0;99.9
49901;DHT22;35789;48.414;12.768;2023-03-01T07:30:00;-0.9;99.9
49901;DHT22;35789;48.414;12.768;2023-03-01T07:35:00;-0.9;99.9
49901;DHT22;35789;48.414;12.768;2023-03-01T07:40:00;-0.8;99.9
49901;DHT22;35789;48.414;12.768;2023-03-01T07:45:00;-0.7;99.9
49901;DHT22;35789;48.414;12.768;2023-03-01T07:50:00;-0.6;99.9
49901;DHT22;35789;48.414;12.768;2023-03-01T07:55:00;-0.6;99.9
49901;DHT22;35789;48.414;12.768;2023-03-01T08:00:00;-0.5;99.9
49901;DHT22;35789;48.414;12.768;2023-03-01T08:05:00;-0.4;99.9
49901;DHT22;35789;48.414;12.768;2023-03-01T08:10:00;-0.2;99.9
49901;DHT22;35789;48.414;12.768;2023-03-01T08:15:00;0.0;99.9
49901;DHT22;35789;48.414;12.768;2023-03-01T08:20:00;0.1;99.9
49901;DHT22;35789;48.414;12.768;2023-03-01T08:25:00;0.2;99.9
49901;DHT22;35789;48.414;12.768;2023-03-01T08:30:00;0.3;99.9
49901;DHT22;35789;48.414;12.768;2023-03-01T08:35:00;0.4;99.9
49901;DHT22;35789;48.414;12.768;2023-03-01T08:40:00;0.5;99.9
49901;DHT22;35789;48.414;12.768;2023-03-01T08:45:00;0.6;99.9
49901;DHT22;35789;48.414;12.768;2023-03-01T08:50:00;0.7;99.9
49901;DHT22;35789;48.414;12.768;2023-03-01T08:55:00;0.8;99.9
49901;DHT22;35789;48.414;12.768;2023-03-01T09:00:00;0.9;99.9
49901;DHT22;35789;48.414;12.768;2023-03-01T09:05:00;1.0;99.9
49901;DHT22;35789;48.414;12.768;2023-03-01T09:10:00;1.1;99.7
49901;DHT22;35789;48.414;12.768;2023-03-01T09:15:00;1.3;98.9
49901;DHT22;35789;48.414;12.768;2023-03-01T09:20:00;1.3;99.9
49901;DHT22;35789;48.414;12.768;2023-03-01T09:25:00;1.6;99.5
49901;DHT22;35789;48.414;12.768;2023-03-01T09:30:00;1.6;99.9
49901;DHT22;35789;48.414;12.768;2023-03-01T09:35:00;1.7;99.7
49901;DHT22;35789;48.414;12.768;2023-03-01T09:40:00;1.8;98.4
49901;DHT22;35789;48.414;12.768;2023-03-01T09:45:02;2.0;99.2
49901;DHT22;35789;48.414;12.768;2023-03-01T09:50:02;1.9;99.1
49901;DHT22;35789;48.414;12.768;2023-03-01T09:55:00;2.1;99.2
49901;DHT22;35789;48.414;12.768;2023-03-01T10:00:03;2.2;97.9
49901;DHT22;35789;48.414;12.768;2023-03-01T10:05:04;2.2;99.9
49901;DHT22;35789;48.414;12.768;2023-03-01T10:10:00;2.3;98.7
49901;DHT22;35789;48.414;12.768;2023-03-01T10:15:02;2.4;99.2
49901;DHT22;35789;48.414;12.768;2023-03-01T10:20:10;2.6;99.0
49901;DHT22;35789;48.414;12.768;2023-03-01T10:25:02;2.7;99.0
49901;DHT22;35789;48.414;12.768;2023-03-01T10:30:02;2.7;98.9
49901;DHT22;35789;48.414;12.768;2023-03-01T10:35:00;2.8;99.0
49901;DHT22;35789;48.414;12.768;2023-03-01T10:40:03;2.9;99.6
49901;DHT22;35789;48.414;12.768;2023-03-01T10:50:01;3.2;99.5
49901;DHT22;35789;48.414;12.768;2023-03-01T10:55:03;3.3;99.5
49901;DHT22;35789;48.414;12.768;2023-03-01T11:00:02;3.5;98.3
49901;DHT22;35789;48.414;12.768;2023-03-01T11:05:01;3.5;98.2
49901;DHT22;35789;48.414;12.768;2023-03-01T11:10:03;3.5;99.1
49901;DHT22;35789;48.414;12.768;2023-03-01T11:15:00;3.6;99.9
49901;DHT22;35789;48.414;12.768;2023-03-01T11:20:02;3.7;98.4
49901;DHT22;35789;48.414;12.768;2023-03-01T11:25:00;3.8;99.5
49901;DHT22;35789;48.414;12.768;2023-03-01T11:30:02;4.1;98.8
49901;DHT22;35789;48.414;12.768;2023-03-01T11:35:02;4.3;98.8
49901;DHT22;35789;48.414;12.768;2023-03-01T11:40:03;4.3;98.7
49901;DHT22;35789;48.414;12.768;2023-03-01T11:45:02;4.3;99.4
49901;DHT22;35789;48.414;12.768;2023-03-01T11:50:05;4.3;99.9
49901;DHT22;35789;48.414;12.768;2023-03-01T11:55:05;4.6;98.6
49901;DHT22;35789;48.414;12.768;2023-03-01T12:00:07;4.9;99.3
49901;DHT22;35789;48.414;12.768;2023-03-01T12:05:07;4.9;98.9
49901;DHT22;35789;48.414;12.768;2023-03-01T12:10:07;4.8;99.6
49901;DHT22;35789;48.414;12.768;2023-03-01T12:15:06;4.8;99.9
49901;DHT22;35789;48.414;12.768;2023-03-01T12:20:05;5.0;98.8
49901;DHT22;35789;48.414;12.768;2023-03-01T12:25:07;5.1;99.4
49901;DHT22;35789;48.414;12.768;2023-03-01T12:30:02;5.4;99.2
49901;DHT22;35789;48.414;12.768;2023-03-01T12:35:04;5.5;98.6
49901;DHT22;35789;48.414;12.768;2023-03-01T12:40:03;5.5;99.5
49901;DHT22;35789;48.414;12.768;2023-03-01T12:45:04;5.6;99.2
49901;DHT22;35789;48.414;12.768;2023-03-01T12:50:01;5.7;99.1
49901;DHT22;35789;48.414;12.768;2023-03-01T12:55:00;5.6;99.2
49901;DHT22;35789;48.414;12.768;2023-03-01T13:00:02;5.9;98.2
49901;DHT22;35789;48.414;12.768;2023-03-01T13:05:05;5.9;98.8
49901;DHT22;35789;48.414;12.768;2023-03-01T13:10:05;5.9;99.1
49901;DHT22;35789;48.414;12.768;2023-03-01T13:15:00;6.0;98.8
49901;DHT22;35789;48.414;12.768;2023-03-01T13:20:00;5.8;99.3
49901;DHT22;35789;48.414;12.768;2023-03-01T13:25:01;6.0;98.8
49901;DHT22;35789;48.414;12.768;2023-03-01T13:30:00;5.9;99.4
49901;DHT22;35789;48.414;12.768;2023-03-01T13:35:00;5.9;99.7
49901;DHT22;35789;48.414;12.768;2023-03-01T13:40:03;5.9;99.3
49901;DHT22;35789;48.414;12.768;2023-03-01T13:45:00;6.1;99.0
49901;DHT22;35789;48.414;12.768;2023-03-01T13:50:00;6.2;98.8
49901;DHT22;35789;48.414;12.768;2023-03-01T13:55:00;6.1;99.7
49901;DHT22;35789;48.414;12.768;2023-03-01T14:00:00;6.1;99.2
49901;DHT22;35789;48.414;12.768;2023-03-01T14:05:00;6.1;99.7
49901;DHT22;35789;48.414;12.768;2023-03-01T14:10:02;6.2;99.6
49901;DHT22;35789;48.414;12.768;2023-03-01T14:15:01;6.3;99.3
49901;DHT22;35789;48.414;12.768;2023-03-01T14:20:00;6.3;99.6
49901;DHT22;35789;48.414;12.768;2023-03-01T14:25:01;6.4;99.3
49901;DHT22;35789;48.414;12.768;2023-03-01T14:30:01;6.3;99.6
49901;DHT22;35789;48.414;12.768;2023-03-01T14:35:00;6.7;98.9
49901;DHT22;35789;48.414;12.768;2023-03-01T14:40:02;6.5;99.2
49901;DHT22;35789;48.414;12.768;2023-03-01T14:45:00;6.6;99.5
49901;DHT22;35789;48.414;12.768;2023-03-01T14:50:02;6.6;99.4
49901;DHT22;35789;48.414;12.768;2023-03-01T14:55:00;6.5;99.9
49901;DHT22;35789;48.414;12.768;2023-03-01T15:00:01;6.6;99.5
49901;DHT22;35789;48.414;12.768;2023-03-01T15:05:01;6.6;99.6
49901;DHT22;35789;48.414;12.768;2023-03-01T15:10:00;6.7;99.6
49901;DHT22;35789;48.414;12.768;2023-03-01T15:15:00;6.6;99.9
49901;DHT22;35789;48.414;12.768;2023-03-01T15:20:00;6.6;99.6
49901;DHT22;35789;48.414;12.768;2023-03-01T15:25:00;6.4;99.9
49901;DHT22;35789;48.414;12.768;2023-03-01T15:30:00;6.6;99.9
49901;DHT22;35789;48.414;12.768;2023-03-01T15:35:01;6.4;99.6
49901;DHT22;35789;48.414;12.768;2023-03-01T15:40:00;6.5;99.9
49901;DHT22;35789;48.414;12.768;2023-03-01T15:45:08;6.4;99.9
49901;DHT22;35789;48.414;12.768;2023-03-01T15:50:00;6.4;99.9
49901;DHT22;35789;48.414;12.768;2023-03-01T15:55:01;6.2;99.9
49901;DHT22;35789;48.414;12.768;2023-03-01T16:00:00;6.2;99.9
49901;DHT22;35789;48.414;12.768;2023-03-01T16:05:00;6.2;99.9
49901;DHT22;35789;48.414;12.768;2023-03-01T16:10:00;6.1;99.9
49901;DHT22;35789;48.414;12.768;2023-03-01T16:15:00;6.0;99.9
49901;DHT22;35789;48.414;12.768;2023-03-01T16:20:00;5.8;99.9
49901;DHT22;35789;48.414;12.768;2023-03-01T16:25:00;5.7;99.9
49901;DHT22;35789;48.414;12.768;2023-03-01T16:30:00;5.5;99.9
49901;DHT22;35789;48.414;12.768;2023-03-01T16:35:00;5.6;99.9
49901;DHT22;35789;48.414;12.768;2023-03-01T16:40:00;5.5;99.9
49901;DHT22;35789;48.414;12.768;2023-03-01T16:45:00;5.4;99.9
49901;DHT22;35789;48.414;12.768;2023-03-01T16:50:00;5.3;99.9
49901;DHT22;35789;48.414;12.768;2023-03-01T16:55:01;5.2;99.9
49901;DHT22;35789;48.414;12.768;2023-03-01T17:00:00;5.0;99.9
49901;DHT22;35789;48.414;12.768;2023-03-01T17:05:01;5.0;99.9
49901;DHT22;35789;48.414;12.768;2023-03-01T17:10:00;4.8;99.9
49901;DHT22;35789;48.414;12.768;2023-03-01T17:15:00;4.7;99.9
49901;DHT22;35789;48.414;12.768;2023-03-01T17:20:00;4.5;99.9
49901;DHT22;35789;48.414;12.768;2023-03-01T17:25:00;4.3;99.9
49901;DHT22;35789;48.414;12.768;2023-03-01T17:30:00;4.1;99.9
49901;DHT22;35789;48.414;12.768;2023-03-01T17:35:00;4.0;99.9
49901;DHT22;35789;48.414;12.768;2023-03-01T17:40:00;4.1;99.9
49901;DHT22;35789;48.414;12.768;2023-03-01T17:45:00;4.0;99.9
49901;DHT22;35789;48.414;12.768;2023-03-01T17:50:00;4.0;99.9
49901;DHT22;35789;48.414;12.768;2023-03-01T17:55:00;4.0;99.9
49901;DHT22;35789;48.414;12.768;2023-03-01T18:00:00;4.0;99.9
49901;DHT22;35789;48.414;12.768;2023-03-01T18:05:00;3.9;99.9
49901;DHT22;35789;48.414;12.768;2023-03-01T18:10:00;3.8;99.9
49901;DHT22;35789;48.414;12.768;2023-03-01T18:15:00;3.9;99.9
49901;DHT22;35789;48.414;12.768;2023-03-01T18:20:00;3.9;99.9
49901;DHT22;35789;48.414;12.768;2023-03-01T18:25:00;3.9;99.9
49901;DHT22;35789;48.414;12.768;2023-03-01T18:30:00;3.9;99.9
49901;DHT22;35789;48.414;12.768;2023-03-01T18:35:00;3.9;99.9
49901;DHT22;35789;48.414;12.768;2023-03-01T18:40:00;3.8;99.9
49901;DHT22;35789;48.414;12.768;2023-03-01T18:45:00;3.8;99.9
49901;DHT22;35789;48.414;12.768;2023-03-01T18:50:00;3.7;99.9
49901;DHT22;35789;48.414;12.768;2023-03-01T18:55:00;3.7;99.9
49901;DHT22;35789;48.414;12.768;2023-03-01T19:00:00;3.6;99.9
49901;DHT22;35789;48.414;12.768;2023-03-01T19:05:00;3.5;99.9
49901;DHT22;35789;48.414;12.768;2023-03-01T19:10:00;3.5;99.9
49901;DHT22;35789;48.414;12.768;2023-03-01T19:15:00;3.4;99.9
49901;DHT22;35789;48.414;12.768;2023-03-01T19:20:00;3.4;99.9
49901;DHT22;35789;48.414;12.768;2023-03-01T19:25:00;3.3;99.9
49901;DHT22;35789;48.414;12.768;2023-03-01T19:30:00;3.3;99.9
49901;DHT22;35789;48.414;12.768;2023-03-01T19:35:00;3.2;99.9
49901;DHT22;35789;48.414;12.768;2023-03-01T19:40:00;3.1;99.9
49901;DHT22;35789;48.414;12.768;2023-03-01T19:45:00;3.1;99.9
49901;DHT22;35789;48.414;12.768;2023-03-01T19:50:00;3.1;99.9
49901;DHT22;35789;48.414;12.768;2023-03-01T19:55:00;3.1;99.9
49901;DHT22;35789;48.414;12.768;2023-03-01T20:00:00;3.0;99.9
49901;DHT22;35789;48.414;12.768;2023-03-01T20:05:00;2.9;99.9
49901;DHT22;35789;48.414;12.768;2023-03-01T20:10:00;2.8;99.9
49901;DHT22;35789;48.414;12.768;2023-03-01T20:15:00;2.8;99.9
49901;DHT22;35789;48.414;12.768;2023-03-01T20:20:00;2.7;99.9
49901;DHT22;35789;48.414;12.768;2023-03-01T20:25:00;2.6;99.9
49901;DHT22;35789;48.414;12.768;2023-03-01T20:30:00;2.6;99.9
49901;DHT22;35789;48.414;12.768;2023-03-01T20:35:00;2.6;99.9
49901;DHT22;35789;48.414;12.768;2023-03-01T20:40:00;2.6;99.9
49901;DHT22;35789;48.414;12.768;2023-03-01T20:45:00;2.5;99.9
49901;DHT22;35789;48.414;12.768;2023-03-01T20:50:00;2.5;99.9
49901;DHT22;35789;48.414;12.768;2023-03-01T20:55:00;2.5;99.9
49901;DHT22;35789;48.414;12.768;2023-03-01T21:00:00;2.4;99.9
49901;DHT22;35789;48.414;12.768;2023-03-01T21:05:00;2.4;99.9
49901;DHT22;35789;48.414;12.768;2023-03-01T21:10:00;2.4;99.9
49901;DHT22;35789;48.414;12.768;2023-03-01T21:15:00;2.3;99.9
49901;DHT22;35789;48.414;12.768;2023-03-01T21:20:00;2.3;99.9
49901;DHT22;35789;48.414;12.768;2023-03-01T21:25:00;2.3;99.9
49901;DHT22;35789;48.414;12.768;2023-03-01T21:30:00;2.3;99.9
49901;DHT22;35789;48.414;12.768;2023-03-01T21:35:00;2.2;99.9
49901;DHT22;35789;48.414;12.768;2023-03-01T21:40:00;2.2;99.9
49901;DHT22;35789;48.414;12.768;2023-03-01T21:45:00;2.1;99.9
49901;DHT22;35789;48.414;12.768;2023-03-01T21:50:00;2.1;99.9
49901;DHT22;35789;48.414;12.768;2023-03-01T21:55:00;2.1;99.9
49901;DHT22;35789;48.414;12.768;2023-03-01T22:00:00;2.1;99.9
49901;DHT22;35789;48.414;12.768;2023-03-01T22:05:00;2.1;99.9
49901;DHT22;35789;48.414;12.768;2023-03-01T22:10:00;2.1;99.9
49901;DHT22;35789;48.414;12.768;2023-03-01T22:15:00;2.2;99.9
49901;DHT22;35789;48.414;12.768;2023-03-01T22:20:00;2.1;99.9
49901;DHT22;35789;48.414;12.768;2023-03-01T22:25:00;2.2;99.9
49901;DHT22;35789;48.414;12.768;2023-03-01T22:30:00;2.1;99.9
49901;DHT22;35789;48.414;12.768;2023-03-01T22:35:00;2.0;99.9
49901;DHT22;35789;48.414;12.768;2023-03-01T22:40:00;2.0;99.9
49901;DHT22;35789;48.414;12.768;2023-03-01T22:45:00;2.0;99.9
49901;DHT22;35789;48.414;12.768;2023-03-01T22:50:00;2.0;99.9
49901;DHT22;35789;48.414;12.768;2023-03-01T22:55:00;1.9;99.9
49901;DHT22;35789;48.414;12.768;2023-03-01T23:00:00;1.9;99.9
49901;DHT22;35789;48.414;12.768;2023-03-01T23:05:00;1.9;99.9
49901;DHT22;35789;48.414;12.768;2023-03-01T23:10:00;1.9;99.9
49901;DHT22;35789;48.414;12.768;2023-03-01T23:15:00;1.9;99.9
49901;DHT22;35789;48.414;12.768;2023-03-01T23:20:00;1.8;99.9
49901;DHT22;35789;48.414;12.768;2023-03-01T23:25:00;1.8;99.9
49901;DHT22;35789;48.414;12.768;2023-03-01T23:30:00;1.8;99.9
49901;DHT22;35789;48.414;12.768;2023-03-01T23:35:00;1.8;99.9
49901;DHT22;35789;48.414;12.768;2023-03-01T23:40:00;1.9;99.9
49901;DHT22;35789;48.414;12.768;2023-03-01T23:45:00;1.9;99.9
49901;DHT22;35789;48.414;12.768;2023-03-01T23:50:00;1.8;99.9
49901;DHT22;35789;48.414;12.768;2023-03-01T23:55:00;1.8;99.9
